sensor_id;sensor_type;location;lat;lon;timestamp;P1;durP1;ratioP1;P2;durP2;ratioP2
32734;SDS011;19112;51.076;3.706;2022-09-20T00:01:16;15.18;;;5.50;;
32734;SDS011;19112;51.076;3.706;2022-09-20T00:03:58;12.00;;;3.88;;
32734;SDS011;19112;51.076;3.706;2022-09-20T00:06:27;12.50;;;4.53;;
32734;SDS011;19112;51.076;3.706;2022-09-20T00:08:54;14.95;;;4.65;;
32734;SDS011;19112;51.076;3.706;2022-09-20T00:11:22;14.00;;;4.35;;
32734;SDS011;19112;51.076;3.706;2022-09-20T00:13:51;12.60;;;4.13;;
32734;SDS011;19112;51.076;3.706;2022-09-20T00:16:21;16.25;;;4.43;;
32734;SDS011;19112;51.076;3.706;2022-09-20T00:18:51;11.32;;;4.40;;
32734;SDS011;19112;51.076;3.706;2022-09-20T00:21:21;15.23;;;4.50;;
32734;SDS011;19112;51.076;3.706;2022-09-20T00:23:50;15.93;;;4.78;;
32734;SDS011;19112;51.076;3.706;2022-09-20T00:26:17;12.40;;;4.47;;
32734;SDS011;19112;51.076;3.706;2022-09-20T00:28:43;17.83;;;4.93;;
32734;SDS011;19112;51.076;3.706;2022-09-20T00:31:11;14.38;;;5.00;;
32734;SDS011;19112;51.076;3.706;2022-09-20T00:33:37;18.20;;;5.10;;
32734;SDS011;19112;51.076;3.706;2022-09-20T00:36:21;16.25;;;4.90;;
32734;SDS011;19112;51.076;3.706;2022-09-20T00:38:47;18.65;;;5.05;;
32734;SDS011;19112;51.076;3.706;2022-09-20T00:41:13;19.70;;;5.40;;
32734;SDS011;19112;51.076;3.706;2022-09-20T00:43:43;14.60;;;5.10;;
32734;SDS011;19112;51.076;3.706;2022-09-20T00:46:21;16.80;;;5.95;;
32734;SDS011;19112;51.076;3.706;2022-09-20T00:49:02;20.83;;;5.88;;
32734;SDS011;19112;51.076;3.706;2022-09-20T00:51:53;18.13;;;5.50;;
32734;SDS011;19112;51.076;3.706;2022-09-20T00:54:23;17.58;;;5.50;;
32734;SDS011;19112;51.076;3.706;2022-09-20T00:56:51;19.27;;;5.35;;
32734;SDS011;19112;51.076;3.706;2022-09-20T01:02:05;21.08;;;6.40;;
32734;SDS011;19112;51.076;3.706;2022-09-20T01:04:40;19.38;;;6.03;;
32734;SDS011;19112;51.076;3.706;2022-09-20T01:07:08;19.85;;;5.78;;
32734;SDS011;19112;51.076;3.706;2022-09-20T01:09:37;18.77;;;5.45;;
32734;SDS011;19112;51.076;3.706;2022-09-20T01:12:08;19.88;;;6.18;;
32734;SDS011;19112;51.076;3.706;2022-09-20T01:14:39;19.30;;;6.07;;
32734;SDS011;19112;51.076;3.706;2022-09-20T01:17:08;17.92;;;6.05;;
32734;SDS011;19112;51.076;3.706;2022-09-20T01:28:46;20.38;;;6.63;;
32734;SDS011;19112;51.076;3.706;2022-09-20T01:31:23;17.83;;;5.95;;
32734;SDS011;19112;51.076;3.706;2022-09-20T01:33:58;19.10;;;5.90;;
32734;SDS011;19112;51.076;3.706;2022-09-20T01:36:54;18.17;;;5.78;;
32734;SDS011;19112;51.076;3.706;2022-09-20T01:39:31;19.15;;;5.80;;
32734;SDS011;19112;51.076;3.706;2022-09-20T01:42:11;26.00;;;6.85;;
32734;SDS011;19112;51.076;3.706;2022-09-20T01:50:14;20.73;;;7.07;;
32734;SDS011;19112;51.076;3.706;2022-09-20T01:56:22;15.75;;;6.75;;
32734;SDS011;19112;51.076;3.706;2022-09-20T02:05:16;18.20;;;6.05;;
32734;SDS011;19112;51.076;3.706;2022-09-20T02:11:22;19.08;;;6.38;;
32734;SDS011;19112;51.076;3.706;2022-09-20T02:40:06;16.25;;;5.60;;
32734;SDS011;19112;51.076;3.706;2022-09-20T02:45:41;22.75;;;7.43;;
32734;SDS011;19112;51.076;3.706;2022-09-20T02:48:33;16.17;;;6.28;;
32734;SDS011;19112;51.076;3.706;2022-09-20T02:51:13;18.15;;;6.70;;
32734;SDS011;19112;51.076;3.706;2022-09-20T02:57:33;22.08;;;7.85;;
32734;SDS011;19112;51.076;3.706;2022-09-20T03:05:45;17.95;;;7.05;;
32734;SDS011;19112;51.076;3.706;2022-09-20T03:08:49;22.38;;;6.93;;
32734;SDS011;19112;51.076;3.706;2022-09-20T03:14:56;22.00;;;6.75;;
32734;SDS011;19112;51.076;3.706;2022-09-20T03:41:26;21.70;;;8.55;;
32734;SDS011;19112;51.076;3.706;2022-09-20T04:10:45;20.50;;;7.97;;
32734;SDS011;19112;51.076;3.706;2022-09-20T04:19:57;21.23;;;7.88;;
32734;SDS011;19112;51.076;3.706;2022-09-20T04:22:27;20.33;;;6.95;;
32734;SDS011;19112;51.076;3.706;2022-09-20T04:24:56;18.92;;;7.40;;
32734;SDS011;19112;51.076;3.706;2022-09-20T04:27:43;21.15;;;6.85;;
32734;SDS011;19112;51.076;3.706;2022-09-20T04:30:19;19.58;;;7.10;;
32734;SDS011;19112;51.076;3.706;2022-09-20T04:32:59;19.73;;;7.50;;
32734;SDS011;19112;51.076;3.706;2022-09-20T04:38:35;24.67;;;10.65;;
32734;SDS011;19112;51.076;3.706;2022-09-20T04:57:32;16.92;;;6.75;;
32734;SDS011;19112;51.076;3.706;2022-09-20T05:00:18;19.30;;;6.80;;
32734;SDS011;19112;51.076;3.706;2022-09-20T05:02:54;16.58;;;6.75;;
32734;SDS011;19112;51.076;3.706;2022-09-20T05:06:12;16.50;;;6.03;;
32734;SDS011;19112;51.076;3.706;2022-09-20T05:27:14;20.48;;;7.35;;
32734;SDS011;19112;51.076;3.706;2022-09-20T05:33:49;20.23;;;8.65;;
32734;SDS011;19112;51.076;3.706;2022-09-20T05:45:22;22.77;;;6.78;;
32734;SDS011;19112;51.076;3.706;2022-09-20T05:48:36;25.48;;;8.82;;
32734;SDS011;19112;51.076;3.706;2022-09-20T05:52:01;19.90;;;7.70;;
32734;SDS011;19112;51.076;3.706;2022-09-20T06:01:18;25.25;;;8.40;;
32734;SDS011;19112;51.076;3.706;2022-09-20T06:04:24;24.15;;;8.13;;
32734;SDS011;19112;51.076;3.706;2022-09-20T06:07:05;22.35;;;8.05;;
32734;SDS011;19112;51.076;3.706;2022-09-20T06:10:12;22.30;;;8.45;;
32734;SDS011;19112;51.076;3.706;2022-09-20T06:16:28;23.90;;;9.30;;
32734;SDS011;19112;51.076;3.706;2022-09-20T06:19:17;23.73;;;9.50;;
32734;SDS011;19112;51.076;3.706;2022-09-20T06:22:15;22.83;;;9.30;;
32734;SDS011;19112;51.076;3.706;2022-09-20T06:25:03;23.27;;;9.82;;
32734;SDS011;19112;51.076;3.706;2022-09-20T06:27:51;26.33;;;9.38;;
32734;SDS011;19112;51.076;3.706;2022-09-20T06:30:50;26.58;;;9.48;;
32734;SDS011;19112;51.076;3.706;2022-09-20T06:33:22;22.83;;;10.05;;
32734;SDS011;19112;51.076;3.706;2022-09-20T06:42:24;22.80;;;9.93;;
32734;SDS011;19112;51.076;3.706;2022-09-20T06:44:51;24.02;;;10.05;;
32734;SDS011;19112;51.076;3.706;2022-09-20T06:47:17;22.45;;;10.02;;
32734;SDS011;19112;51.076;3.706;2022-09-20T06:49:43;24.23;;;10.52;;
32734;SDS011;19112;51.076;3.706;2022-09-20T06:52:13;23.50;;;10.85;;
32734;SDS011;19112;51.076;3.706;2022-09-20T06:54:45;25.23;;;10.90;;
32734;SDS011;19112;51.076;3.706;2022-09-20T07:00:02;24.08;;;9.68;;
32734;SDS011;19112;51.076;3.706;2022-09-20T07:02:35;22.90;;;9.60;;
32734;SDS011;19112;51.076;3.706;2022-09-20T07:05:01;22.17;;;9.60;;
32734;SDS011;19112;51.076;3.706;2022-09-20T07:07:27;25.30;;;9.00;;
32734;SDS011;19112;51.076;3.706;2022-09-20T07:09:52;26.00;;;8.02;;
32734;SDS011;19112;51.076;3.706;2022-09-20T07:12:18;20.25;;;8.73;;
32734;SDS011;19112;51.076;3.706;2022-09-20T07:14:45;21.77;;;8.30;;
32734;SDS011;19112;51.076;3.706;2022-09-20T07:17:10;22.13;;;9.52;;
32734;SDS011;19112;51.076;3.706;2022-09-20T07:19:37;20.55;;;8.05;;
32734;SDS011;19112;51.076;3.706;2022-09-20T07:22:03;19.48;;;8.18;;
32734;SDS011;19112;51.076;3.706;2022-09-20T07:24:29;20.92;;;7.60;;
32734;SDS011;19112;51.076;3.706;2022-09-20T07:26:57;22.95;;;7.88;;
32734;SDS011;19112;51.076;3.706;2022-09-20T07:29:29;23.70;;;7.85;;
32734;SDS011;19112;51.076;3.706;2022-09-20T07:31:55;19.83;;;7.88;;
32734;SDS011;19112;51.076;3.706;2022-09-20T07:34:22;20.70;;;7.50;;
32734;SDS011;19112;51.076;3.706;2022-09-20T07:36:48;19.77;;;7.22;;
32734;SDS011;19112;51.076;3.706;2022-09-20T07:39:15;20.85;;;7.20;;
32734;SDS011;19112;51.076;3.706;2022-09-20T07:41:41;15.98;;;6.50;;
32734;SDS011;19112;51.076;3.706;2022-09-20T07:44:12;17.23;;;6.35;;
32734;SDS011;19112;51.076;3.706;2022-09-20T07:46:52;21.83;;;6.00;;
32734;SDS011;19112;51.076;3.706;2022-09-20T07:49:21;18.92;;;5.63;;
32734;SDS011;19112;51.076;3.706;2022-09-20T07:51:49;19.35;;;5.60;;
32734;SDS011;19112;51.076;3.706;2022-09-20T07:54:16;15.15;;;5.72;;
32734;SDS011;19112;51.076;3.706;2022-09-20T07:56:42;12.45;;;4.47;;
32734;SDS011;19112;51.076;3.706;2022-09-20T07:59:08;10.65;;;4.20;;
32734;SDS011;19112;51.076;3.706;2022-09-20T08:01:35;11.35;;;4.13;;
32734;SDS011;19112;51.076;3.706;2022-09-20T08:04:03;15.68;;;5.00;;
32734;SDS011;19112;51.076;3.706;2022-09-20T08:06:30;14.07;;;4.88;;
32734;SDS011;19112;51.076;3.706;2022-09-20T08:08:59;14.50;;;4.57;;
32734;SDS011;19112;51.076;3.706;2022-09-20T08:11:25;11.30;;;4.32;;
32734;SDS011;19112;51.076;3.706;2022-09-20T08:13:54;15.13;;;4.70;;
32734;SDS011;19112;51.076;3.706;2022-09-20T08:16:23;13.15;;;4.72;;
32734;SDS011;19112;51.076;3.706;2022-09-20T08:18:52;12.55;;;4.18;;
32734;SDS011;19112;51.076;3.706;2022-09-20T08:21:24;10.95;;;3.17;;
32734;SDS011;19112;51.076;3.706;2022-09-20T08:23:58;6.78;;;3.05;;
32734;SDS011;19112;51.076;3.706;2022-09-20T08:26:25;11.50;;;3.40;;
32734;SDS011;19112;51.076;3.706;2022-09-20T08:28:53;10.77;;;3.55;;
32734;SDS011;19112;51.076;3.706;2022-09-20T08:31:22;14.60;;;3.50;;
32734;SDS011;19112;51.076;3.706;2022-09-20T08:33:55;13.82;;;3.70;;
32734;SDS011;19112;51.076;3.706;2022-09-20T08:36:23;11.27;;;3.22;;
32734;SDS011;19112;51.076;3.706;2022-09-20T08:38:50;8.20;;;2.88;;
32734;SDS011;19112;51.076;3.706;2022-09-20T08:43:55;11.55;;;2.92;;
32734;SDS011;19112;51.076;3.706;2022-09-20T08:46:31;9.63;;;3.23;;
32734;SDS011;19112;51.076;3.706;2022-09-20T08:49:09;13.25;;;2.97;;
32734;SDS011;19112;51.076;3.706;2022-09-20T08:51:52;10.77;;;2.70;;
32734;SDS011;19112;51.076;3.706;2022-09-20T08:54:22;9.18;;;2.40;;
32734;SDS011;19112;51.076;3.706;2022-09-20T08:56:49;10.77;;;2.78;;
32734;SDS011;19112;51.076;3.706;2022-09-20T08:59:17;6.88;;;2.42;;
32734;SDS011;19112;51.076;3.706;2022-09-20T09:01:46;10.15;;;3.03;;
32734;SDS011;19112;51.076;3.706;2022-09-20T09:04:21;10.85;;;2.88;;
32734;SDS011;19112;51.076;3.706;2022-09-20T09:06:49;11.43;;;2.65;;
32734;SDS011;19112;51.076;3.706;2022-09-20T09:09:25;7.03;;;2.40;;
32734;SDS011;19112;51.076;3.706;2022-09-20T09:11:53;9.88;;;2.47;;
32734;SDS011;19112;51.076;3.706;2022-09-20T09:17:19;10.13;;;2.30;;
32734;SDS011;19112;51.076;3.706;2022-09-20T09:19:49;8.10;;;2.40;;
32734;SDS011;19112;51.076;3.706;2022-09-20T09:22:21;10.57;;;2.15;;
32734;SDS011;19112;51.076;3.706;2022-09-20T09:27:56;6.78;;;2.40;;
32734;SDS011;19112;51.076;3.706;2022-09-20T09:30:39;6.80;;;2.17;;
32734;SDS011;19112;51.076;3.706;2022-09-20T09:33:21;12.32;;;3.13;;
32734;SDS011;19112;51.076;3.706;2022-09-20T09:35:58;15.48;;;2.53;;
32734;SDS011;19112;51.076;3.706;2022-09-20T09:38:41;11.48;;;2.58;;
32734;SDS011;19112;51.076;3.706;2022-09-20T09:44:35;8.57;;;2.40;;
32734;SDS011;19112;51.076;3.706;2022-09-20T09:46:49;7.75;;;2.45;;
32734;SDS011;19112;51.076;3.706;2022-09-20T09:49:30;8.23;;;2.40;;
32734;SDS011;19112;51.076;3.706;2022-09-20T09:54:26;8.05;;;2.35;;
32734;SDS011;19112;51.076;3.706;2022-09-20T10:10:51;12.40;;;2.08;;
32734;SDS011;19112;51.076;3.706;2022-09-20T10:13:43;9.50;;;1.80;;
32734;SDS011;19112;51.076;3.706;2022-09-20T10:20:21;7.35;;;2.17;;
32734;SDS011;19112;51.076;3.706;2022-09-20T10:23:26;5.85;;;1.95;;
32734;SDS011;19112;51.076;3.706;2022-09-20T10:26:03;9.00;;;1.92;;
32734;SDS011;19112;51.076;3.706;2022-09-20T10:28:57;7.32;;;2.30;;
32734;SDS011;19112;51.076;3.706;2022-09-20T10:34:23;5.78;;;1.88;;
32734;SDS011;19112;51.076;3.706;2022-09-20T10:45:53;8.18;;;1.70;;
32734;SDS011;19112;51.076;3.706;2022-09-20T10:48:46;11.00;;;2.42;;
32734;SDS011;19112;51.076;3.706;2022-09-20T11:06:41;9.18;;;2.00;;
32734;SDS011;19112;51.076;3.706;2022-09-20T11:09:39;3.05;;;1.23;;
32734;SDS011;19112;51.076;3.706;2022-09-20T11:17:44;3.60;;;0.85;;
32734;SDS011;19112;51.076;3.706;2022-09-20T11:20:28;3.67;;;0.80;;
32734;SDS011;19112;51.076;3.706;2022-09-20T11:23:09;2.30;;;0.80;;
32734;SDS011;19112;51.076;3.706;2022-09-20T11:25:47;3.38;;;1.27;;
32734;SDS011;19112;51.076;3.706;2022-09-20T11:28:23;7.47;;;1.67;;
32734;SDS011;19112;51.076;3.706;2022-09-20T11:31:00;7.60;;;2.00;;
32734;SDS011;19112;51.076;3.706;2022-09-20T11:36:58;5.18;;;1.15;;
32734;SDS011;19112;51.076;3.706;2022-09-20T11:39:29;4.95;;;1.88;;
32734;SDS011;19112;51.076;3.706;2022-09-20T11:42:26;7.38;;;1.67;;
32734;SDS011;19112;51.076;3.706;2022-09-20T11:44:58;6.05;;;1.38;;
32734;SDS011;19112;51.076;3.706;2022-09-20T11:47:29;6.10;;;1.40;;
32734;SDS011;19112;51.076;3.706;2022-09-20T11:53:15;3.95;;;1.40;;
32734;SDS011;19112;51.076;3.706;2022-09-20T11:56:22;3.88;;;0.90;;
32734;SDS011;19112;51.076;3.706;2022-09-20T11:58:52;5.30;;;1.02;;
32734;SDS011;19112;51.076;3.706;2022-09-20T12:01:29;3.30;;;0.60;;
32734;SDS011;19112;51.076;3.706;2022-09-20T12:03:59;3.15;;;0.60;;
32734;SDS011;19112;51.076;3.706;2022-09-20T12:06:35;3.67;;;0.95;;
32734;SDS011;19112;51.076;3.706;2022-09-20T12:09:13;4.13;;;1.00;;
32734;SDS011;19112;51.076;3.706;2022-09-20T12:11:53;5.40;;;1.27;;
32734;SDS011;19112;51.076;3.706;2022-09-20T12:14:24;4.80;;;1.02;;
32734;SDS011;19112;51.076;3.706;2022-09-20T12:16:53;4.03;;;1.10;;
32734;SDS011;19112;51.076;3.706;2022-09-20T12:29:50;5.68;;;1.60;;
32734;SDS011;19112;51.076;3.706;2022-09-20T12:35:31;4.30;;;1.55;;
32734;SDS011;19112;51.076;3.706;2022-09-20T12:38:33;6.85;;;1.85;;
32734;SDS011;19112;51.076;3.706;2022-09-20T12:43:33;4.88;;;1.52;;
32734;SDS011;19112;51.076;3.706;2022-09-20T12:46:17;6.35;;;1.83;;
32734;SDS011;19112;51.076;3.706;2022-09-20T12:49:18;5.25;;;1.83;;
32734;SDS011;19112;51.076;3.706;2022-09-20T13:00:40;8.20;;;1.90;;
32734;SDS011;19112;51.076;3.706;2022-09-20T13:03:25;6.38;;;1.33;;
32734;SDS011;19112;51.076;3.706;2022-09-20T13:08:34;8.63;;;2.20;;
32734;SDS011;19112;51.076;3.706;2022-09-20T13:16:52;4.03;;;1.48;;
32734;SDS011;19112;51.076;3.706;2022-09-20T13:19:41;6.05;;;1.60;;
32734;SDS011;19112;51.076;3.706;2022-09-20T13:22:16;7.00;;;1.42;;
32734;SDS011;19112;51.076;3.706;2022-09-20T13:24:51;4.05;;;1.38;;
32734;SDS011;19112;51.076;3.706;2022-09-20T13:29:56;4.80;;;1.10;;
32734;SDS011;19112;51.076;3.706;2022-09-20T13:32:56;9.07;;;1.55;;
32734;SDS011;19112;51.076;3.706;2022-09-20T13:35:52;4.50;;;1.52;;
32734;SDS011;19112;51.076;3.706;2022-09-20T13:38:22;3.40;;;1.33;;
32734;SDS011;19112;51.076;3.706;2022-09-20T13:40:57;6.43;;;1.40;;
32734;SDS011;19112;51.076;3.706;2022-09-20T13:43:38;4.20;;;0.80;;
32734;SDS011;19112;51.076;3.706;2022-09-20T13:46:12;8.07;;;1.42;;
32734;SDS011;19112;51.076;3.706;2022-09-20T13:49:08;8.80;;;1.50;;
32734;SDS011;19112;51.076;3.706;2022-09-20T13:51:41;2.15;;;1.10;;
32734;SDS011;19112;51.076;3.706;2022-09-20T13:54:24;5.53;;;1.48;;
32734;SDS011;19112;51.076;3.706;2022-09-20T13:56:53;4.18;;;1.27;;
32734;SDS011;19112;51.076;3.706;2022-09-20T13:59:26;8.73;;;1.70;;
32734;SDS011;19112;51.076;3.706;2022-09-20T14:02:03;6.65;;;1.67;;
32734;SDS011;19112;51.076;3.706;2022-09-20T14:04:43;3.95;;;1.63;;
32734;SDS011;19112;51.076;3.706;2022-09-20T14:07:09;8.18;;;1.60;;
32734;SDS011;19112;51.076;3.706;2022-09-20T14:09:38;7.03;;;1.45;;
32734;SDS011;19112;51.076;3.706;2022-09-20T14:12:05;8.32;;;2.03;;
32734;SDS011;19112;51.076;3.706;2022-09-20T14:14:32;10.98;;;1.92;;
32734;SDS011;19112;51.076;3.706;2022-09-20T14:17:00;5.68;;;1.60;;
32734;SDS011;19112;51.076;3.706;2022-09-20T14:19:29;2.63;;;1.30;;
32734;SDS011;19112;51.076;3.706;2022-09-20T14:22:04;6.40;;;1.53;;
32734;SDS011;19112;51.076;3.706;2022-09-20T14:24:32;8.35;;;1.60;;
32734;SDS011;19112;51.076;3.706;2022-09-20T14:27:02;8.48;;;1.75;;
32734;SDS011;19112;51.076;3.706;2022-09-20T14:29:46;8.52;;;2.20;;
32734;SDS011;19112;51.076;3.706;2022-09-20T14:34:52;4.65;;;1.70;;
32734;SDS011;19112;51.076;3.706;2022-09-20T14:40:18;8.98;;;1.67;;
32734;SDS011;19112;51.076;3.706;2022-09-20T14:43:05;8.75;;;2.08;;
32734;SDS011;19112;51.076;3.706;2022-09-20T14:45:49;8.30;;;2.13;;
32734;SDS011;19112;51.076;3.706;2022-09-20T14:51:07;5.93;;;1.75;;
32734;SDS011;19112;51.076;3.706;2022-09-20T14:53:36;6.38;;;1.92;;
32734;SDS011;19112;51.076;3.706;2022-09-20T15:01:32;6.10;;;1.73;;
32734;SDS011;19112;51.076;3.706;2022-09-20T15:04:04;6.60;;;1.67;;
32734;SDS011;19112;51.076;3.706;2022-09-20T15:06:43;4.25;;;1.20;;
32734;SDS011;19112;51.076;3.706;2022-09-20T15:09:10;10.38;;;1.80;;
32734;SDS011;19112;51.076;3.706;2022-09-20T15:11:37;2.55;;;1.42;;
32734;SDS011;19112;51.076;3.706;2022-09-20T15:14:04;8.68;;;1.80;;
32734;SDS011;19112;51.076;3.706;2022-09-20T15:16:31;5.43;;;1.38;;
32734;SDS011;19112;51.076;3.706;2022-09-20T15:18:57;10.75;;;1.42;;
32734;SDS011;19112;51.076;3.706;2022-09-20T15:21:23;7.57;;;1.52;;
32734;SDS011;19112;51.076;3.706;2022-09-20T15:23:50;5.90;;;1.23;;
32734;SDS011;19112;51.076;3.706;2022-09-20T15:26:16;5.05;;;1.20;;
32734;SDS011;19112;51.076;3.706;2022-09-20T15:28:45;8.15;;;1.27;;
32734;SDS011;19112;51.076;3.706;2022-09-20T15:31:11;6.70;;;1.42;;
32734;SDS011;19112;51.076;3.706;2022-09-20T15:33:39;5.93;;;1.20;;
32734;SDS011;19112;51.076;3.706;2022-09-20T15:36:05;5.03;;;1.40;;
32734;SDS011;19112;51.076;3.706;2022-09-20T15:38:32;4.25;;;1.15;;
32734;SDS011;19112;51.076;3.706;2022-09-20T15:41:01;5.63;;;1.42;;
32734;SDS011;19112;51.076;3.706;2022-09-20T15:43:28;4.32;;;1.35;;
32734;SDS011;19112;51.076;3.706;2022-09-20T15:45:58;3.80;;;1.25;;
32734;SDS011;19112;51.076;3.706;2022-09-20T15:48:41;2.97;;;1.30;;
32734;SDS011;19112;51.076;3.706;2022-09-20T15:51:08;3.85;;;1.20;;
32734;SDS011;19112;51.076;3.706;2022-09-20T15:53:36;6.18;;;1.55;;
32734;SDS011;19112;51.076;3.706;2022-09-20T15:58:52;4.45;;;1.80;;
32734;SDS011;19112;51.076;3.706;2022-09-20T16:01:27;15.23;;;3.00;;
32734;SDS011;19112;51.076;3.706;2022-09-20T16:04:10;12.00;;;2.45;;
32734;SDS011;19112;51.076;3.706;2022-09-20T16:06:39;14.98;;;4.65;;
32734;SDS011;19112;51.076;3.706;2022-09-20T16:09:06;11.73;;;2.97;;
32734;SDS011;19112;51.076;3.706;2022-09-20T16:11:33;9.27;;;2.42;;
32734;SDS011;19112;51.076;3.706;2022-09-20T16:13:59;11.52;;;2.63;;
32734;SDS011;19112;51.076;3.706;2022-09-20T16:16:26;12.57;;;2.90;;
32734;SDS011;19112;51.076;3.706;2022-09-20T16:18:55;8.98;;;2.88;;
32734;SDS011;19112;51.076;3.706;2022-09-20T16:21:41;11.85;;;3.05;;
32734;SDS011;19112;51.076;3.706;2022-09-20T16:24:10;7.03;;;2.33;;
32734;SDS011;19112;51.076;3.706;2022-09-20T16:26:37;9.75;;;2.60;;
32734;SDS011;19112;51.076;3.706;2022-09-20T16:29:03;10.05;;;2.33;;
32734;SDS011;19112;51.076;3.706;2022-09-20T16:36:44;6.60;;;2.38;;
32734;SDS011;19112;51.076;3.706;2022-09-20T16:39:13;9.88;;;2.30;;
32734;SDS011;19112;51.076;3.706;2022-09-20T16:41:40;11.32;;;2.50;;
32734;SDS011;19112;51.076;3.706;2022-09-20T16:44:08;10.73;;;2.40;;
32734;SDS011;19112;51.076;3.706;2022-09-20T16:46:34;8.00;;;2.53;;
32734;SDS011;19112;51.076;3.706;2022-09-20T16:49:02;10.48;;;2.50;;
32734;SDS011;19112;51.076;3.706;2022-09-20T16:51:38;12.32;;;2.55;;
32734;SDS011;19112;51.076;3.706;2022-09-20T16:54:06;14.45;;;3.80;;
32734;SDS011;19112;51.076;3.706;2022-09-20T16:56:37;17.48;;;5.72;;
32734;SDS011;19112;51.076;3.706;2022-09-20T16:59:05;10.00;;;3.22;;
32734;SDS011;19112;51.076;3.706;2022-09-20T17:01:31;22.50;;;8.43;;
32734;SDS011;19112;51.076;3.706;2022-09-20T17:03:58;23.92;;;8.32;;
32734;SDS011;19112;51.076;3.706;2022-09-20T17:06:25;18.55;;;6.45;;
32734;SDS011;19112;51.076;3.706;2022-09-20T17:08:53;19.60;;;5.63;;
32734;SDS011;19112;51.076;3.706;2022-09-20T17:11:21;19.65;;;4.95;;
32734;SDS011;19112;51.076;3.706;2022-09-20T17:13:50;18.23;;;6.70;;
32734;SDS011;19112;51.076;3.706;2022-09-20T17:16:19;21.40;;;7.63;;
32734;SDS011;19112;51.076;3.706;2022-09-20T17:18:53;23.77;;;7.90;;
32734;SDS011;19112;51.076;3.706;2022-09-20T17:21:25;20.83;;;6.75;;
32734;SDS011;19112;51.076;3.706;2022-09-20T17:23:53;39.95;;;18.25;;
32734;SDS011;19112;51.076;3.706;2022-09-20T17:26:22;36.22;;;16.20;;
32734;SDS011;19112;51.076;3.706;2022-09-20T17:28:57;31.95;;;15.45;;
32734;SDS011;19112;51.076;3.706;2022-09-20T17:31:30;33.40;;;15.55;;
32734;SDS011;19112;51.076;3.706;2022-09-20T17:33:59;33.55;;;16.25;;
32734;SDS011;19112;51.076;3.706;2022-09-20T17:36:31;32.42;;;13.93;;
32734;SDS011;19112;51.076;3.706;2022-09-20T17:39:04;23.35;;;10.63;;
32734;SDS011;19112;51.076;3.706;2022-09-20T17:41:33;18.95;;;6.22;;
32734;SDS011;19112;51.076;3.706;2022-09-20T17:44:00;20.02;;;6.70;;
32734;SDS011;19112;51.076;3.706;2022-09-20T17:46:36;16.17;;;5.57;;
32734;SDS011;19112;51.076;3.706;2022-09-20T17:49:08;15.95;;;5.47;;
32734;SDS011;19112;51.076;3.706;2022-09-20T17:51:37;17.07;;;4.80;;
32734;SDS011;19112;51.076;3.706;2022-09-20T17:54:08;12.97;;;4.20;;
32734;SDS011;19112;51.076;3.706;2022-09-20T17:56:38;11.00;;;3.80;;
32734;SDS011;19112;51.076;3.706;2022-09-20T17:59:06;10.52;;;3.83;;
32734;SDS011;19112;51.076;3.706;2022-09-20T18:01:33;14.38;;;3.92;;
32734;SDS011;19112;51.076;3.706;2022-09-20T18:04:01;10.43;;;3.47;;
32734;SDS011;19112;51.076;3.706;2022-09-20T18:09:09;10.48;;;3.33;;
32734;SDS011;19112;51.076;3.706;2022-09-20T18:11:41;10.32;;;4.22;;
32734;SDS011;19112;51.076;3.706;2022-09-20T18:14:13;12.20;;;4.05;;
32734;SDS011;19112;51.076;3.706;2022-09-20T18:16:41;14.85;;;3.50;;
32734;SDS011;19112;51.076;3.706;2022-09-20T18:19:08;13.80;;;4.32;;
32734;SDS011;19112;51.076;3.706;2022-09-20T18:21:35;9.52;;;3.25;;
32734;SDS011;19112;51.076;3.706;2022-09-20T18:24:05;13.85;;;3.75;;
32734;SDS011;19112;51.076;3.706;2022-09-20T18:26:36;21.15;;;4.25;;
32734;SDS011;19112;51.076;3.706;2022-09-20T18:29:13;9.57;;;3.65;;
32734;SDS011;19112;51.076;3.706;2022-09-20T18:31:44;13.00;;;3.80;;
32734;SDS011;19112;51.076;3.706;2022-09-20T18:34:17;10.90;;;3.70;;
32734;SDS011;19112;51.076;3.706;2022-09-20T18:36:57;12.60;;;4.60;;
32734;SDS011;19112;51.076;3.706;2022-09-20T18:39:25;18.70;;;4.80;;
32734;SDS011;19112;51.076;3.706;2022-09-20T18:41:57;12.93;;;4.17;;
32734;SDS011;19112;51.076;3.706;2022-09-20T18:44:23;18.70;;;5.07;;
32734;SDS011;19112;51.076;3.706;2022-09-20T18:46:51;18.52;;;5.45;;
32734;SDS011;19112;51.076;3.706;2022-09-20T18:49:18;14.90;;;5.03;;
32734;SDS011;19112;51.076;3.706;2022-09-20T18:51:45;14.60;;;4.90;;
32734;SDS011;19112;51.076;3.706;2022-09-20T18:54:12;15.95;;;4.80;;
32734;SDS011;19112;51.076;3.706;2022-09-20T18:56:39;15.77;;;4.78;;
32734;SDS011;19112;51.076;3.706;2022-09-20T19:13:03;18.42;;;5.28;;
32734;SDS011;19112;51.076;3.706;2022-09-20T19:18:44;13.70;;;6.22;;
32734;SDS011;19112;51.076;3.706;2022-09-20T19:24:55;19.70;;;7.07;;
32734;SDS011;19112;51.076;3.706;2022-09-20T19:27:54;18.77;;;7.40;;
32734;SDS011;19112;51.076;3.706;2022-09-20T19:30:20;19.10;;;8.52;;
32734;SDS011;19112;51.076;3.706;2022-09-20T19:32:46;20.10;;;8.32;;
32734;SDS011;19112;51.076;3.706;2022-09-20T19:35:21;20.33;;;8.05;;
32734;SDS011;19112;51.076;3.706;2022-09-20T19:38:02;17.63;;;6.95;;
32734;SDS011;19112;51.076;3.706;2022-09-20T19:41:31;21.58;;;8.38;;
32734;SDS011;19112;51.076;3.706;2022-09-20T19:44:22;21.27;;;8.07;;
32734;SDS011;19112;51.076;3.706;2022-09-20T19:47:24;29.98;;;12.35;;
32734;SDS011;19112;51.076;3.706;2022-09-20T19:53:07;25.40;;;10.40;;
32734;SDS011;19112;51.076;3.706;2022-09-20T19:55:34;22.88;;;10.68;;
32734;SDS011;19112;51.076;3.706;2022-09-20T19:58:00;25.60;;;10.80;;
32734;SDS011;19112;51.076;3.706;2022-09-20T20:00:27;23.33;;;9.65;;
32734;SDS011;19112;51.076;3.706;2022-09-20T20:02:55;27.05;;;11.82;;
32734;SDS011;19112;51.076;3.706;2022-09-20T20:05:22;22.60;;;9.75;;
32734;SDS011;19112;51.076;3.706;2022-09-20T20:08:12;21.98;;;10.25;;
32734;SDS011;19112;51.076;3.706;2022-09-20T20:19:42;28.98;;;12.70;;
32734;SDS011;19112;51.076;3.706;2022-09-20T20:28:19;29.45;;;12.95;;
32734;SDS011;19112;51.076;3.706;2022-09-20T20:30:44;27.13;;;13.10;;
32734;SDS011;19112;51.076;3.706;2022-09-20T20:33:14;26.58;;;13.88;;
32734;SDS011;19112;51.076;3.706;2022-09-20T20:35:40;25.88;;;13.23;;
32734;SDS011;19112;51.076;3.706;2022-09-20T20:38:06;28.77;;;13.10;;
32734;SDS011;19112;51.076;3.706;2022-09-20T20:40:34;25.30;;;13.80;;
32734;SDS011;19112;51.076;3.706;2022-09-20T20:43:01;32.78;;;14.80;;
32734;SDS011;19112;51.076;3.706;2022-09-20T20:45:28;26.55;;;12.63;;
32734;SDS011;19112;51.076;3.706;2022-09-20T20:47:54;29.42;;;14.20;;
32734;SDS011;19112;51.076;3.706;2022-09-20T20:50:22;32.10;;;15.52;;
32734;SDS011;19112;51.076;3.706;2022-09-20T20:52:52;31.20;;;14.77;;
32734;SDS011;19112;51.076;3.706;2022-09-20T20:55:20;29.42;;;15.20;;
32734;SDS011;19112;51.076;3.706;2022-09-20T20:57:51;30.50;;;15.35;;
32734;SDS011;19112;51.076;3.706;2022-09-20T21:00:24;30.35;;;15.10;;
32734;SDS011;19112;51.076;3.706;2022-09-20T21:02:57;29.35;;;15.45;;
32734;SDS011;19112;51.076;3.706;2022-09-20T21:05:25;30.67;;;14.88;;
32734;SDS011;19112;51.076;3.706;2022-09-20T21:07:52;29.35;;;16.60;;
32734;SDS011;19112;51.076;3.706;2022-09-20T21:10:19;36.85;;;17.83;;
32734;SDS011;19112;51.076;3.706;2022-09-20T21:12:46;30.42;;;15.90;;
32734;SDS011;19112;51.076;3.706;2022-09-20T21:15:14;30.70;;;15.88;;
32734;SDS011;19112;51.076;3.706;2022-09-20T21:17:42;33.10;;;16.48;;
32734;SDS011;19112;51.076;3.706;2022-09-20T21:20:16;30.65;;;16.00;;
32734;SDS011;19112;51.076;3.706;2022-09-20T21:22:42;34.95;;;16.52;;
32734;SDS011;19112;51.076;3.706;2022-09-20T21:25:09;32.05;;;16.40;;
32734;SDS011;19112;51.076;3.706;2022-09-20T21:27:35;32.55;;;15.45;;